createdAt,value
2019-06-10T00:00:55.325Z,46.70
2019-06-10T00:03:22.961Z,46.70
2019-06-10T00:05:51.739Z,46.70
2019-06-10T00:08:20.879Z,46.60
2019-06-10T00:10:50.925Z,46.60
2019-06-10T00:13:17.715Z,46.60
2019-06-10T00:15:45.189Z,46.60
2019-06-10T00:18:34.419Z,46.60
2019-06-10T00:20:41.842Z,46.60
2019-06-10T00:23:11.680Z,46.60
2019-06-10T00:25:40.579Z,46.60
2019-06-10T00:28:08.865Z,46.60
2019-06-10T00:30:36.991Z,46.70
2019-06-10T00:33:05.888Z,46.60
2019-06-10T00:35:33.901Z,46.60
2019-06-10T00:38:02.551Z,46.60
2019-06-10T00:40:31.732Z,46.60
2019-06-10T00:43:00.084Z,46.70
2019-06-10T00:45:28.454Z,46.50
2019-06-10T00:48:07.623Z,46.50
2019-06-10T00:50:25.118Z,46.50
2019-06-10T00:52:52.604Z,46.60
2019-06-10T00:55:21.197Z,46.50
2019-06-10T00:57:50.862Z,46.50
2019-06-10T01:00:25.340Z,46.50
2019-06-10T01:02:47.186Z,46.50
2019-06-10T01:05:15.248Z,46.50
2019-06-10T01:07:42.998Z,46.50
2019-06-10T01:10:12.895Z,46.40
2019-06-10T01:12:40.722Z,46.40
2019-06-10T01:15:09.401Z,46.40
2019-06-10T01:17:37.425Z,46.30
2019-06-10T01:20:05.831Z,46.30
2019-06-10T01:22:33.305Z,46.40
2019-06-10T01:25:01.657Z,46.40
2019-06-10T01:27:31.367Z,46.40
2019-06-10T01:29:58.514Z,46.40
2019-06-10T01:32:25.973Z,46.40
2019-06-10T01:34:53.529Z,46.40
2019-06-10T01:37:21.827Z,46.40
2019-06-10T01:39:51.490Z,46.40
2019-06-10T01:42:18.892Z,46.40
2019-06-10T01:44:46.357Z,46.40
2019-06-10T01:47:14.639Z,46.40
2019-06-10T01:49:43.005Z,46.40
2019-06-10T01:52:12.450Z,46.40
2019-06-10T01:54:41.892Z,46.40
2019-06-10T01:57:11.927Z,46.50
2019-06-10T01:59:38.116Z,46.40
2019-06-10T02:02:07.249Z,46.40
2019-06-10T02:04:34.726Z,46.40
2019-06-10T02:07:02.220Z,46.20
2019-06-10T02:09:30.991Z,46.40
2019-06-10T02:11:58.769Z,46.40
2019-06-10T02:14:26.229Z,46.40
2019-06-10T02:16:54.071Z,46.30
2019-06-10T02:19:22.943Z,46.40
2019-06-10T02:21:51.090Z,46.40
2019-06-10T02:24:19.711Z,46.30
2019-06-10T02:26:47.828Z,46.40
2019-06-10T02:29:16.131Z,46.40
2019-06-10T02:31:44.673Z,46.40
2019-06-10T02:34:15.759Z,46.40
2019-06-10T02:36:44.606Z,46.30
2019-06-10T02:39:13.362Z,46.40
2019-06-10T02:41:39.995Z,47.00
2019-06-10T02:44:07.733Z,46.40
2019-06-10T02:46:36.354Z,46.40
2019-06-10T02:49:20.568Z,46.40
2019-06-10T02:51:35.782Z,46.40
2019-06-10T02:54:04.716Z,46.40
2019-06-10T02:56:36.200Z,46.40
2019-06-10T02:59:03.399Z,46.40
2019-06-10T03:01:34.319Z,46.30
2019-06-10T03:03:59.554Z,46.30
2019-06-10T03:06:33.409Z,46.30
2019-06-10T03:08:56.210Z,46.30
2019-06-10T03:11:29.678Z,46.30
2019-06-10T03:13:53.189Z,46.30
2019-06-10T03:16:37.589Z,46.30
2019-06-10T03:19:05.063Z,46.30
2019-06-10T03:21:32.547Z,46.40
2019-06-10T03:24:02.482Z,46.30
2019-06-10T03:26:29.574Z,46.40
2019-06-10T03:28:57.050Z,46.30
2019-06-10T03:31:33.463Z,46.40
2019-06-10T03:33:54.539Z,46.30
2019-06-10T03:36:23.107Z,46.30
2019-06-10T03:38:53.675Z,46.30
2019-06-10T03:41:22.905Z,46.30
2019-06-10T03:43:49.797Z,46.40
2019-06-10T03:46:17.305Z,46.30
2019-06-10T03:48:44.810Z,46.30
2019-06-10T03:51:12.745Z,46.30
2019-06-10T03:53:42.696Z,46.30
2019-06-10T03:56:09.608Z,46.30
2019-06-10T03:58:37.111Z,46.30
2019-06-10T04:01:04.578Z,46.40
2019-06-10T04:03:33.829Z,46.20
2019-06-10T04:06:02.414Z,46.30
2019-06-10T04:08:32.591Z,46.20
2019-06-10T04:10:59.373Z,46.20
2019-06-10T04:13:28.356Z,46.30
2019-06-10T04:15:57.162Z,46.30
2019-06-10T04:18:26.621Z,46.20
2019-06-10T04:20:54.093Z,46.40
2019-06-10T04:23:23.975Z,46.20
2019-06-10T04:25:52.673Z,46.20
2019-06-10T04:28:19.931Z,46.20
2019-06-10T04:30:47.397Z,46.20
2019-06-10T04:33:14.848Z,46.20
2019-06-10T04:35:42.833Z,46.20
2019-06-10T04:38:12.944Z,46.20
2019-06-10T04:40:39.648Z,46.20
2019-06-10T04:43:07.110Z,46.30
2019-06-10T04:45:34.587Z,46.40
2019-06-10T04:48:03.077Z,46.20
2019-06-10T04:50:37.227Z,46.30
2019-06-10T04:53:02.187Z,46.30
2019-06-10T04:55:29.331Z,46.80
2019-06-10T04:57:56.909Z,46.30
2019-06-10T05:00:27.151Z,46.30
2019-06-10T05:02:53.566Z,46.20
2019-06-10T05:05:23.660Z,46.90
2019-06-10T05:07:52.061Z,46.30
2019-06-10T05:10:19.411Z,46.40
2019-06-10T05:12:46.879Z,46.30
2019-06-10T05:15:14.410Z,46.40
2019-06-10T05:17:43.635Z,46.40
2019-06-10T05:20:12.604Z,46.50
2019-06-10T05:22:42.483Z,46.60
2019-06-10T05:25:09.522Z,46.70
2019-06-10T05:27:36.993Z,46.70
2019-06-10T05:30:07.331Z,46.90
2019-06-10T05:32:34.797Z,46.90
2019-06-10T05:35:03.515Z,46.90
2019-06-10T05:37:33.693Z,47.00
2019-06-10T05:40:02.181Z,47.00
2019-06-10T05:42:31.303Z,47.10
2019-06-10T05:44:58.754Z,47.10
2019-06-10T05:47:28.321Z,47.10
2019-06-10T05:49:55.506Z,47.20
2019-06-10T05:52:24.329Z,47.30
2019-06-10T05:54:52.316Z,47.30
2019-06-10T05:57:19.904Z,47.30
2019-06-10T05:59:47.370Z,47.40
2019-06-10T06:02:14.835Z,47.40
2019-06-10T06:04:42.860Z,47.40
2019-06-10T06:07:12.755Z,47.50
2019-06-10T06:09:39.761Z,47.40
2019-06-10T06:12:07.339Z,47.60
2019-06-10T06:14:36.118Z,56.80
2019-06-10T06:17:03.748Z,58.70
2019-06-10T06:19:35.009Z,58.80
2019-06-10T06:22:02.249Z,59.10
2019-06-10T06:24:29.630Z,58.30
2019-06-10T06:26:57.162Z,58.50
2019-06-10T06:29:24.618Z,59.00
2019-06-10T06:31:52.458Z,58.80
2019-06-10T06:34:22.525Z,60.10
2019-06-10T06:36:49.703Z,61.20
2019-06-10T06:39:17.246Z,60.40
2019-06-10T06:41:44.717Z,61.10
2019-06-10T06:44:12.917Z,60.50
2019-06-10T06:46:42.991Z,60.30
2019-06-10T06:49:12.260Z,59.90
2019-06-10T06:51:54.019Z,59.80
2019-06-10T06:54:09.525Z,58.60
2019-06-10T06:56:38.871Z,57.30
2019-06-10T06:59:06.186Z,56.70
2019-06-10T07:01:36.466Z,56.10
2019-06-10T07:04:03.110Z,55.70
2019-06-10T07:06:32.900Z,55.50
2019-06-10T07:09:05.482Z,55.20
2019-06-10T07:11:31.157Z,55.00
2019-06-10T07:13:59.149Z,54.90
2019-06-10T07:16:26.614Z,54.70
2019-06-10T07:18:54.267Z,54.50
2019-06-10T07:21:22.809Z,54.20
2019-06-10T07:23:52.571Z,54.40
2019-06-10T07:26:22.016Z,54.20
2019-06-10T07:28:48.870Z,54.00
2019-06-10T07:31:24.099Z,53.90
2019-06-10T07:33:47.315Z,53.80
2019-06-10T07:36:14.794Z,53.70
2019-06-10T07:38:47.055Z,54.30
2019-06-10T07:41:12.561Z,53.60
2019-06-10T07:43:46.194Z,53.60
2019-06-10T07:46:09.636Z,53.70
2019-06-10T07:48:39.556Z,53.60
2019-06-10T07:51:06.612Z,53.70
2019-06-10T07:53:36.335Z,53.60
2019-06-10T07:56:03.858Z,53.70
2019-06-10T07:58:33.377Z,53.50
2019-06-10T08:01:02.602Z,56.10
2019-06-10T08:03:30.150Z,55.40
2019-06-10T08:05:57.618Z,57.20
2019-06-10T08:08:25.166Z,58.00
2019-06-10T08:10:53.030Z,59.20
2019-06-10T08:13:22.524Z,59.30
2019-06-10T08:15:49.790Z,59.00
2019-06-10T08:18:17.261Z,59.40
2019-06-10T08:20:47.976Z,59.70
2019-06-10T08:23:18.857Z,59.40
2019-06-10T08:25:52.990Z,57.70
2019-06-10T08:28:15.506Z,56.70
2019-06-10T08:30:45.900Z,56.40
2019-06-10T08:33:13.707Z,56.10
2019-06-10T08:35:48.368Z,56.00
2019-06-10T08:38:12.429Z,55.90
2019-06-10T08:40:40.652Z,55.60
2019-06-10T08:43:09.040Z,55.60
2019-06-10T08:45:36.897Z,55.60
2019-06-10T08:48:23.907Z,55.50
2019-06-10T08:50:53.046Z,55.40
2019-06-10T08:53:22.740Z,55.30
2019-06-10T08:55:50.274Z,55.10
2019-06-10T08:58:18.343Z,55.00
2019-06-10T09:00:49.052Z,54.80
2019-06-10T09:03:15.018Z,54.60
2019-06-10T09:05:47.416Z,54.40
2019-06-10T09:08:13.003Z,54.40
2019-06-10T09:10:42.238Z,54.30
2019-06-10T09:13:09.970Z,54.20
2019-06-10T09:15:38.763Z,54.50
2019-06-10T09:18:06.742Z,54.00
2019-06-10T09:20:34.209Z,53.90
2019-06-10T09:23:17.856Z,53.80
2019-06-10T09:25:33.365Z,53.70
2019-06-10T09:28:02.238Z,53.80
2019-06-10T09:30:29.261Z,53.70
2019-06-10T09:33:00.116Z,53.70
2019-06-10T09:35:25.921Z,53.60
2019-06-10T09:37:55.670Z,53.60
2019-06-10T09:40:24.809Z,53.60
2019-06-10T09:42:54.769Z,53.40
2019-06-10T09:45:22.378Z,53.40
2019-06-10T09:47:57.939Z,53.40
2019-06-10T09:50:22.715Z,53.30
2019-06-10T09:52:53.396Z,53.90
2019-06-10T09:55:23.259Z,53.20
2019-06-10T09:57:58.481Z,53.10
2019-06-10T10:00:37.558Z,53.70
2019-06-10T10:03:05.026Z,52.90
2019-06-10T10:05:33.822Z,52.80
2019-06-10T10:08:01.359Z,52.80
2019-06-10T10:10:35.895Z,52.80
2019-06-10T10:13:03.817Z,52.60
2019-06-10T10:15:34.430Z,52.60
2019-06-10T10:18:02.458Z,52.60
2019-06-10T10:20:29.761Z,52.40
2019-06-10T10:22:58.021Z,52.30
2019-06-10T10:25:25.510Z,52.40
2019-06-10T10:27:57.239Z,52.50
2019-06-10T10:30:25.368Z,52.10
2019-06-10T10:32:54.058Z,52.10
2019-06-10T10:35:24.109Z,52.00
2019-06-10T10:37:53.860Z,52.00
2019-06-10T10:40:23.293Z,51.90
2019-06-10T10:42:58.713Z,51.90
2019-06-10T10:45:22.518Z,51.90
2019-06-10T10:47:51.827Z,51.70
2019-06-10T10:50:19.022Z,51.80
2019-06-10T10:52:48.199Z,52.30
2019-06-10T10:55:15.666Z,51.70
2019-06-10T10:57:43.245Z,51.60
2019-06-10T11:00:14.512Z,51.60
2019-06-10T11:02:43.154Z,51.50
2019-06-10T11:05:12.764Z,51.40
2019-06-10T11:07:42.275Z,51.30
2019-06-10T11:10:09.610Z,51.20
2019-06-10T11:12:37.087Z,51.20
2019-06-10T11:15:05.256Z,51.20
2019-06-10T11:17:33.643Z,51.30
2019-06-10T11:20:03.698Z,51.20
2019-06-10T11:22:32.747Z,51.30
2019-06-10T11:24:59.705Z,51.30
2019-06-10T11:27:27.175Z,51.30
2019-06-10T11:29:57.356Z,51.30
2019-06-10T11:32:23.842Z,51.20
2019-06-10T11:34:55.527Z,51.10
2019-06-10T11:37:22.983Z,51.10
2019-06-10T11:39:50.200Z,51.10
2019-06-10T11:42:17.846Z,51.00
2019-06-10T11:44:46.341Z,50.90
2019-06-10T11:47:13.872Z,51.00
2019-06-10T11:49:43.460Z,50.90
2019-06-10T11:52:12.584Z,50.90
2019-06-10T11:54:53.619Z,50.80
2019-06-10T11:57:08.971Z,50.80
2019-06-10T11:59:36.438Z,50.80
2019-06-10T12:02:05.913Z,50.80
2019-06-10T12:04:33.142Z,50.80
2019-06-10T12:07:02.332Z,50.80
2019-06-10T12:09:29.956Z,50.70
2019-06-10T12:12:01.412Z,50.70
2019-06-10T12:14:27.286Z,50.70
2019-06-10T12:19:24.166Z,50.70
2019-06-10T12:21:55.687Z,50.60
2019-06-10T12:24:23.050Z,50.50
2019-06-10T12:26:50.038Z,50.50
2019-06-10T12:29:17.523Z,50.50
2019-06-10T12:31:44.971Z,50.50
2019-06-10T12:34:12.706Z,50.50
2019-06-10T12:36:40.198Z,50.60
2019-06-10T12:39:10.958Z,50.50
2019-06-10T12:41:37.626Z,50.70
2019-06-10T12:44:05.274Z,50.90
2019-06-10T12:46:32.868Z,51.20
2019-06-10T12:49:05.910Z,51.90
2019-06-10T12:51:29.572Z,51.20
2019-06-10T12:53:57.396Z,51.50
2019-06-10T12:56:25.065Z,51.70
2019-06-10T12:58:55.266Z,51.80
2019-06-10T13:01:22.017Z,52.00
2019-06-10T13:03:49.514Z,52.00
2019-06-10T13:06:17.532Z,52.20
2019-06-10T13:08:46.089Z,52.30
2019-06-10T13:11:14.898Z,52.50
2019-06-10T13:13:43.021Z,52.40
2019-06-10T13:16:14.149Z,52.50
2019-06-10T13:18:39.962Z,52.60
2019-06-10T13:21:13.456Z,52.80
2019-06-10T13:23:36.630Z,52.80
2019-06-10T13:26:10.434Z,52.80
2019-06-10T13:28:33.295Z,52.90
2019-06-10T13:31:04.261Z,53.00
2019-06-10T13:33:30.017Z,53.10
2019-06-10T13:35:58.696Z,53.20
2019-06-10T13:38:27.530Z,53.20
2019-06-10T13:40:55.181Z,53.20
2019-06-10T13:43:23.281Z,53.30
2019-06-10T13:45:53.015Z,53.50
2019-06-10T13:48:20.115Z,53.50
2019-06-10T13:50:47.585Z,53.70
2019-06-10T13:53:15.054Z,53.70
2019-06-10T13:55:42.520Z,53.70
2019-06-10T13:58:11.675Z,53.80
2019-06-10T14:00:45.295Z,54.00
2019-06-10T14:03:10.268Z,53.90
2019-06-10T14:05:37.680Z,54.00
2019-06-10T14:08:08.654Z,54.40
2019-06-10T14:10:34.397Z,54.50
2019-06-10T14:13:03.963Z,54.50
2019-06-10T14:15:32.917Z,54.80
2019-06-10T14:18:01.787Z,54.90
2019-06-10T14:20:29.532Z,55.10
2019-06-10T14:22:57.075Z,55.10
2019-06-10T14:25:24.534Z,55.40
2019-06-10T14:27:53.198Z,55.60
2019-06-10T14:30:22.940Z,55.80
2019-06-10T14:32:50.094Z,56.00
2019-06-10T14:35:17.736Z,56.20
2019-06-10T14:37:45.422Z,56.30
2019-06-10T14:40:20.091Z,56.50
2019-06-10T14:42:42.957Z,56.80
2019-06-10T14:45:11.370Z,57.00
2019-06-10T14:47:39.757Z,56.90
2019-06-10T14:50:08.813Z,57.10
2019-06-10T14:52:36.332Z,57.10
2019-06-10T14:55:05.252Z,56.90
2019-06-10T14:57:33.424Z,56.90
2019-06-10T15:00:03.001Z,56.90
2019-06-10T15:02:30.326Z,56.80
2019-06-10T15:04:57.786Z,56.80
2019-06-10T15:07:25.501Z,57.00
2019-06-10T15:09:53.041Z,56.70
2019-06-10T15:12:22.612Z,56.80
2019-06-10T15:14:52.006Z,56.90
2019-06-10T15:17:19.053Z,57.10
2019-06-10T15:19:46.563Z,57.20
2019-06-10T15:22:15.343Z,57.30
2019-06-10T15:24:43.209Z,57.10
2019-06-10T15:27:19.253Z,57.20
2019-06-10T15:29:39.881Z,57.10
2019-06-10T15:32:17.143Z,57.20
2019-06-10T15:34:36.545Z,63.80
2019-06-10T15:37:04.020Z,64.20
2019-06-10T15:39:33.322Z,64.20
2019-06-10T15:42:02.840Z,64.20
2019-06-10T15:44:47.920Z,66.00
2019-06-10T15:46:59.106Z,68.30
2019-06-10T15:49:26.576Z,67.00
2019-06-10T15:51:54.054Z,67.60
2019-06-10T15:54:25.129Z,68.80
2019-06-10T15:56:56.169Z,69.70
2019-06-10T15:59:19.901Z,69.50
2019-06-10T16:01:47.362Z,70.30
2019-06-10T16:04:17.226Z,69.50
2019-06-10T16:06:44.014Z,70.40
2019-06-10T16:09:13.062Z,71.30
2019-06-10T16:11:43.373Z,71.30
2019-06-10T16:14:09.881Z,71.10
2019-06-10T16:16:37.349Z,71.60
2019-06-10T16:19:04.858Z,73.40
2019-06-10T16:21:32.399Z,72.30
2019-06-10T16:24:02.567Z,73.10
2019-06-10T16:26:29.156Z,72.30
2019-06-10T16:28:56.617Z,72.70
2019-06-10T16:31:27.148Z,72.40
2019-06-10T16:33:53.288Z,72.70
2019-06-10T16:36:21.818Z,72.70
2019-06-10T16:38:49.940Z,72.70
2019-06-10T16:41:17.585Z,73.40
2019-06-10T16:43:45.167Z,71.60
2019-06-10T16:46:12.700Z,69.70
2019-06-10T16:48:40.163Z,68.80
2019-06-10T16:51:07.630Z,68.10
2019-06-10T16:53:35.805Z,67.40
2019-06-10T16:56:03.557Z,66.90
2019-06-10T16:58:33.199Z,66.70
2019-06-10T17:01:02.955Z,66.30
2019-06-10T17:03:31.352Z,66.00
2019-06-10T17:05:58.739Z,65.80
2019-06-10T17:08:28.101Z,65.50
2019-06-10T17:10:55.404Z,65.30
2019-06-10T17:13:26.790Z,65.30
2019-06-10T17:15:53.943Z,65.10
2019-06-10T17:18:24.575Z,64.90
2019-06-10T17:20:53.271Z,64.70
2019-06-10T17:23:23.642Z,64.70
2019-06-10T17:25:53.295Z,64.50
2019-06-10T17:28:39.758Z,64.30
2019-06-10T17:31:07.222Z,64.20
2019-06-10T17:33:35.631Z,64.10
2019-06-10T17:36:03.760Z,64.10
2019-06-10T17:38:31.587Z,64.00
2019-06-10T17:40:59.053Z,64.00
2019-06-10T17:43:27.305Z,64.00
2019-06-10T17:45:54.971Z,63.80
2019-06-10T17:48:24.183Z,63.80
2019-06-10T17:50:52.451Z,63.70
2019-06-10T17:53:20.330Z,63.50
2019-06-10T17:55:47.822Z,63.60
2019-06-10T17:58:29.346Z,63.70
2019-06-10T18:00:44.759Z,63.40
2019-06-10T18:03:13.161Z,63.40
2019-06-10T18:05:42.562Z,63.50
2019-06-10T18:08:09.959Z,63.30
2019-06-10T18:10:37.762Z,63.30
2019-06-10T18:13:14.019Z,63.20
2019-06-10T18:15:36.751Z,63.30
2019-06-10T18:18:03.698Z,63.30
2019-06-10T18:20:33.551Z,63.20
2019-06-10T18:23:02.736Z,63.10
2019-06-10T18:25:30.850Z,63.20
2019-06-10T18:27:58.898Z,63.20
2019-06-10T18:30:27.244Z,63.00
2019-06-10T18:32:54.816Z,63.00
2019-06-10T18:35:22.483Z,63.00
2019-06-10T18:37:50.164Z,63.00
2019-06-10T18:40:17.641Z,62.90
2019-06-10T18:42:45.109Z,63.00
2019-06-10T18:45:13.069Z,62.80
2019-06-10T18:47:42.308Z,62.80
2019-06-10T18:50:12.580Z,62.80
2019-06-10T18:52:39.406Z,62.70
2019-06-10T18:55:07.351Z,62.70
2019-06-10T18:57:36.279Z,62.70
2019-06-10T19:00:11.911Z,62.90
2019-06-10T19:02:38.583Z,63.00
2019-06-10T19:05:09.389Z,63.00
2019-06-10T19:07:38.342Z,62.80
2019-06-10T19:10:06.893Z,62.70
2019-06-10T19:12:36.607Z,62.80
2019-06-10T19:15:06.508Z,63.40
2019-06-10T19:17:36.706Z,63.20
2019-06-10T19:20:04.598Z,62.90
2019-06-10T19:22:34.073Z,62.90
2019-06-10T19:25:03.727Z,62.70
2019-06-10T19:27:31.293Z,62.60
2019-06-10T19:29:59.653Z,62.70
2019-06-10T19:32:27.124Z,62.70
2019-06-10T19:34:54.689Z,62.70
2019-06-10T19:37:22.251Z,62.60
2019-06-10T19:39:53.768Z,62.50
2019-06-10T19:42:19.110Z,62.30
2019-06-10T19:44:46.577Z,62.30
2019-06-10T19:47:14.202Z,62.10
2019-06-10T19:49:43.621Z,62.00
2019-06-10T19:52:12.039Z,61.90
2019-06-10T19:54:41.705Z,61.90
2019-06-10T19:57:08.897Z,61.80
2019-06-10T19:59:53.759Z,61.70
2019-06-10T20:02:08.683Z,61.60
2019-06-10T20:04:36.095Z,61.60
2019-06-10T20:07:03.890Z,62.30
2019-06-10T20:09:32.922Z,61.50
2019-06-10T20:12:02.190Z,61.50
2019-06-10T20:14:32.136Z,61.30
2019-06-10T20:16:59.080Z,61.30
2019-06-10T20:19:26.574Z,61.40
2019-06-10T20:21:54.016Z,61.20
2019-06-10T20:24:22.345Z,61.20
2019-06-10T20:26:52.720Z,61.20
2019-06-10T20:29:19.170Z,62.00
2019-06-10T20:31:47.546Z,61.20
2019-06-10T20:34:16.274Z,61.00
2019-06-10T20:36:46.592Z,61.20
2019-06-10T20:39:14.385Z,61.00
2019-06-10T20:41:47.291Z,61.10
2019-06-10T20:44:13.088Z,61.20
2019-06-10T20:46:42.639Z,61.00
2019-06-10T20:49:09.530Z,61.20
2019-06-10T20:51:54.513Z,61.20
2019-06-10T20:54:06.758Z,61.10
2019-06-10T20:56:34.266Z,60.90
2019-06-10T20:59:02.850Z,60.70
2019-06-10T21:01:33.054Z,60.60
2019-06-10T21:04:02.804Z,60.60
2019-06-10T21:06:29.289Z,59.90
2019-06-10T21:08:56.753Z,60.30
2019-06-10T21:11:24.218Z,60.20
2019-06-10T21:13:53.137Z,60.00
2019-06-10T21:16:22.980Z,59.90
2019-06-10T21:18:53.115Z,59.90
2019-06-10T21:21:19.264Z,59.70
2019-06-10T21:23:47.602Z,59.80
2019-06-10T21:26:15.460Z,59.70
2019-06-10T21:28:45.544Z,59.60
2019-06-10T21:31:12.112Z,59.50
2019-06-10T21:33:43.790Z,59.40
2019-06-10T21:36:09.114Z,59.40
2019-06-10T21:38:36.602Z,59.20
2019-06-10T21:41:04.121Z,59.30
2019-06-10T21:43:33.072Z,59.20
2019-06-10T21:46:03.334Z,59.10
2019-06-10T21:48:32.230Z,59.00
2019-06-10T21:50:59.326Z,59.00
2019-06-10T21:53:26.788Z,58.90
2019-06-10T21:55:55.279Z,58.90
2019-06-10T21:58:22.876Z,58.80
2019-06-10T22:01:00.898Z,58.70
2019-06-10T22:03:19.889Z,58.50
2019-06-10T22:05:47.534Z,58.50
2019-06-10T22:08:15.098Z,58.40
2019-06-10T22:10:44.090Z,58.50
2019-06-10T22:13:12.331Z,58.40
2019-06-10T22:15:42.256Z,58.40
2019-06-10T22:18:09.145Z,58.30
2019-06-10T22:20:36.625Z,58.20
2019-06-10T22:23:04.097Z,58.20
2019-06-10T22:25:32.785Z,58.10
2019-06-10T22:28:02.820Z,58.10
2019-06-10T22:30:31.949Z,58.00
2019-06-10T22:32:59.100Z,57.80
2019-06-10T22:35:26.561Z,57.80
2019-06-10T22:37:55.442Z,57.80
2019-06-10T22:40:23.580Z,57.70
2019-06-10T22:42:53.619Z,57.80
2019-06-10T22:45:20.237Z,57.70
2019-06-10T22:47:47.714Z,57.70
2019-06-10T22:50:15.174Z,57.50
2019-06-10T22:52:42.706Z,57.50
2019-06-10T22:55:12.821Z,57.50
2019-06-10T22:57:39.502Z,57.30
2019-06-10T23:00:08.874Z,57.40
2019-06-10T23:02:36.343Z,57.30
2019-06-10T23:05:05.568Z,57.20
2019-06-10T23:07:33.233Z,57.20
2019-06-10T23:10:03.065Z,57.10
2019-06-10T23:12:29.893Z,57.10
2019-06-10T23:14:57.798Z,57.00
2019-06-10T23:17:25.721Z,56.90
2019-06-10T23:19:53.948Z,57.00
2019-06-10T23:22:22.378Z,56.90
2019-06-10T23:24:49.846Z,56.90
2019-06-10T23:27:17.301Z,56.80
2019-06-10T23:29:44.769Z,56.70
2019-06-10T23:32:12.955Z,56.60
2019-06-10T23:34:42.273Z,56.50
2019-06-10T23:37:12.398Z,56.60
2019-06-10T23:39:39.109Z,56.50
2019-06-10T23:42:06.571Z,56.50
2019-06-10T23:44:34.048Z,57.00
2019-06-10T23:47:03.642Z,56.40
2019-06-10T23:49:32.281Z,56.30
2019-06-10T23:52:00.947Z,56.20
2019-06-10T23:54:29.128Z,56.10
2019-06-10T23:56:56.657Z,56.10
2019-06-10T23:59:24.245Z,56.00
